createdAt,value
2018-02-14T00:00:26.025Z,4.60
2018-02-14T00:01:27.635Z,4.18
2018-02-14T00:02:29.771Z,4.43
2018-02-14T00:03:31.173Z,4.00
2018-02-14T00:04:33.471Z,4.20
2018-02-14T00:05:36.540Z,4.32
2018-02-14T00:06:37.969Z,4.70
2018-02-14T00:07:40.143Z,4.87
2018-02-14T00:08:41.917Z,4.40
2018-02-14T00:09:45.180Z,4.32
2018-02-14T00:10:48.291Z,4.35
2018-02-14T00:11:49.937Z,4.18
2018-02-14T00:12:51.476Z,4.20
2018-02-14T00:13:53.153Z,4.00
2018-02-14T00:14:54.545Z,4.62
2018-02-14T00:15:56.797Z,4.28
2018-02-14T00:16:58.205Z,4.20
2018-02-14T00:17:59.614Z,4.07
2018-02-14T00:19:01.482Z,4.32
2018-02-14T00:20:02.909Z,4.20
2018-02-14T00:21:04.299Z,4.05
2018-02-14T00:22:05.683Z,3.92
2018-02-14T00:23:07.077Z,4.37
2018-02-14T00:24:08.475Z,4.72
2018-02-14T00:25:10.077Z,5.20
2018-02-14T00:26:11.603Z,4.57
2018-02-14T00:27:13.001Z,4.72
2018-02-14T00:28:14.561Z,4.53
2018-02-14T00:29:16.385Z,4.10
2018-02-14T00:30:17.801Z,4.57
2018-02-14T00:31:19.413Z,4.07
2018-02-14T00:32:21.041Z,4.10
2018-02-14T00:33:22.443Z,4.12
2018-02-14T00:34:24.109Z,3.70
2018-02-14T00:35:25.683Z,4.07
2018-02-14T00:36:28.817Z,3.87
2018-02-14T00:37:31.301Z,3.97
2018-02-14T00:38:32.909Z,3.55
2018-02-14T00:39:34.634Z,3.70
2018-02-14T00:40:36.772Z,3.30
2018-02-14T00:41:38.153Z,3.33
2018-02-14T00:42:39.573Z,3.45
2018-02-14T00:43:41.705Z,3.78
2018-02-14T00:44:43.388Z,4.00
2018-02-14T00:45:44.773Z,3.80
2018-02-14T00:46:46.917Z,3.60
2018-02-14T00:47:48.301Z,3.50
2018-02-14T00:48:49.703Z,3.62
2018-02-14T00:49:51.109Z,3.37
2018-02-14T00:50:52.545Z,3.58
2018-02-14T00:51:54.677Z,3.80
2018-02-14T00:52:56.873Z,3.40
2018-02-14T00:53:58.293Z,3.60
2018-02-14T00:55:01.193Z,3.45
2018-02-14T00:56:02.786Z,3.37
2018-02-14T00:57:05.171Z,3.70
2018-02-14T00:58:08.298Z,3.65
2018-02-14T00:59:09.849Z,3.75
2018-02-14T01:00:11.493Z,3.53
2018-02-14T01:01:12.889Z,3.55
2018-02-14T01:02:15.205Z,3.80
2018-02-14T01:03:16.749Z,3.67
2018-02-14T01:04:18.155Z,3.40
2018-02-14T01:05:19.597Z,3.60
2018-02-14T01:06:21.203Z,3.40
2018-02-14T01:07:22.621Z,3.53
2018-02-14T01:08:25.147Z,3.60
2018-02-14T01:09:26.741Z,3.50
2018-02-14T01:10:28.908Z,3.10
2018-02-14T01:11:31.049Z,3.12
2018-02-14T01:12:33.197Z,3.33
2018-02-14T01:13:34.589Z,3.45
2018-02-14T01:14:35.997Z,2.62
2018-02-14T01:15:38.425Z,2.90
2018-02-14T01:16:39.831Z,3.25
2018-02-14T01:17:41.235Z,3.15
2018-02-14T01:18:47.497Z,3.20
2018-02-14T01:19:55.553Z,2.95
2018-02-14T01:20:57.261Z,3.17
2018-02-14T01:21:58.661Z,3.08
2018-02-14T01:23:01.182Z,3.20
2018-02-14T01:24:02.771Z,3.17
2018-02-14T01:25:04.939Z,3.90
2018-02-14T01:26:07.829Z,3.58
2018-02-14T01:27:10.959Z,3.78
2018-02-14T01:28:12.361Z,3.90
2018-02-14T01:29:13.768Z,3.60
2018-02-14T01:30:16.301Z,3.60
2018-02-14T01:31:18.091Z,3.30
2018-02-14T01:32:21.229Z,3.45
2018-02-14T01:33:22.637Z,3.30
2018-02-14T01:34:24.039Z,2.80
2018-02-14T01:35:25.584Z,3.20
2018-02-14T01:36:26.989Z,3.03
2018-02-14T01:37:28.403Z,2.75
2018-02-14T01:38:29.825Z,3.12
2018-02-14T01:39:31.249Z,2.85
2018-02-14T01:40:33.471Z,2.90
2018-02-14T01:41:35.193Z,2.80
2018-02-14T01:42:36.597Z,3.05
2018-02-14T01:43:39.113Z,3.00
2018-02-14T01:44:40.516Z,3.22
2018-02-14T01:45:41.921Z,3.20
2018-02-14T01:46:43.701Z,3.12
2018-02-14T01:47:45.093Z,3.40
2018-02-14T01:48:47.237Z,3.10
2018-02-14T01:49:48.647Z,2.83
2018-02-14T01:50:50.044Z,3.00
2018-02-14T01:51:52.097Z,2.95
2018-02-14T01:52:54.261Z,2.92
2018-02-14T01:53:55.671Z,3.30
2018-02-14T01:54:57.992Z,3.10
2018-02-14T01:55:59.431Z,2.87
2018-02-14T01:57:01.638Z,3.30
2018-02-14T01:58:03.050Z,2.97
2018-02-14T01:59:04.669Z,3.03
2018-02-14T02:00:06.889Z,2.87
2018-02-14T02:01:08.297Z,2.85
2018-02-14T02:02:10.238Z,2.90
2018-02-14T02:03:12.357Z,2.90
2018-02-14T02:04:14.489Z,3.20
2018-02-14T02:05:15.877Z,3.08
2018-02-14T02:06:18.001Z,2.80
2018-02-14T02:07:19.793Z,2.75
2018-02-14T02:08:21.185Z,2.80
2018-02-14T02:09:23.306Z,2.65
2018-02-14T02:10:24.938Z,2.53
2018-02-14T02:11:26.375Z,2.78
2018-02-14T02:12:28.909Z,2.70
2018-02-14T02:13:31.062Z,2.60
2018-02-14T02:14:32.723Z,2.50
2018-02-14T02:15:34.875Z,2.45
2018-02-14T02:16:37.019Z,2.47
2018-02-14T02:17:38.697Z,2.20
2018-02-14T02:18:41.241Z,2.30
2018-02-14T02:19:42.847Z,2.45
2018-02-14T02:20:44.251Z,2.42
2018-02-14T02:21:45.649Z,2.58
2018-02-14T02:22:47.337Z,2.53
2018-02-14T02:23:48.733Z,2.80
2018-02-14T02:24:50.145Z,2.70
2018-02-14T02:25:51.777Z,2.35
2018-02-14T02:26:53.169Z,2.72
2018-02-14T02:27:54.862Z,2.30
2018-02-14T02:28:56.234Z,2.78
2018-02-14T02:29:57.819Z,2.58
2018-02-14T02:31:00.048Z,2.62
2018-02-14T02:32:01.457Z,2.70
2018-02-14T02:33:03.365Z,2.40
2018-02-14T02:34:06.246Z,2.40
2018-02-14T02:35:07.630Z,2.42
2018-02-14T02:36:10.733Z,2.20
2018-02-14T02:37:12.125Z,2.30
2018-02-14T02:38:13.521Z,2.58
2018-02-14T02:39:33.569Z,2.70
2018-02-14T02:40:35.022Z,2.35
2018-02-14T02:41:37.517Z,2.40
2018-02-14T02:42:39.657Z,2.70
2018-02-14T02:43:41.266Z,2.42
2018-02-14T02:44:42.668Z,2.55
2018-02-14T02:45:44.199Z,2.55
2018-02-14T02:46:46.366Z,2.45
2018-02-14T02:47:47.759Z,2.42
2018-02-14T02:48:49.329Z,2.30
2018-02-14T02:49:51.497Z,2.40
2018-02-14T02:50:53.641Z,2.50
2018-02-14T02:51:55.045Z,2.50
2018-02-14T02:52:56.514Z,2.22
2018-02-14T02:53:58.177Z,2.45
2018-02-14T02:55:01.381Z,2.53
2018-02-14T02:56:03.555Z,2.50
2018-02-14T02:57:05.202Z,2.30
2018-02-14T02:58:06.866Z,2.20
2018-02-14T02:59:08.649Z,2.58
2018-02-14T03:00:11.421Z,2.47
2018-02-14T03:01:13.026Z,2.50
2018-02-14T03:02:14.415Z,2.53
2018-02-14T03:03:15.825Z,2.40
2018-02-14T03:04:18.115Z,2.50
2018-02-14T03:05:19.541Z,2.50
2018-02-14T03:06:21.681Z,2.28
2018-02-14T03:07:23.269Z,2.60
2018-02-14T03:08:24.670Z,2.80
2018-02-14T03:09:26.605Z,2.47
2018-02-14T03:10:28.125Z,2.40
2018-02-14T03:11:29.509Z,2.35
2018-02-14T03:12:30.901Z,2.62
2018-02-14T03:13:32.477Z,2.22
2018-02-14T03:14:34.073Z,2.42
2018-02-14T03:15:35.485Z,2.47
2018-02-14T03:16:37.803Z,2.20
2018-02-14T03:17:41.001Z,2.55
2018-02-14T03:18:42.405Z,2.60
2018-02-14T03:19:43.916Z,2.62
2018-02-14T03:20:46.201Z,2.33
2018-02-14T03:21:47.609Z,2.70
2018-02-14T03:22:49.755Z,2.70
2018-02-14T03:23:51.209Z,2.42
2018-02-14T03:24:53.669Z,2.62
2018-02-14T03:25:56.209Z,2.20
2018-02-14T03:26:57.625Z,2.35
2018-02-14T03:27:59.024Z,2.30
2018-02-14T03:29:00.434Z,2.30
2018-02-14T03:30:02.205Z,2.40
2018-02-14T03:31:04.410Z,2.33
2018-02-14T03:32:05.855Z,2.30
2018-02-14T03:33:07.337Z,2.70
2018-02-14T03:34:09.475Z,2.47
2018-02-14T03:35:11.225Z,2.47
2018-02-14T03:36:14.121Z,2.70
2018-02-14T03:37:16.233Z,2.40
2018-02-14T03:38:17.853Z,2.65
2018-02-14T03:39:19.265Z,2.22
2018-02-14T03:40:21.799Z,2.67
2018-02-14T03:41:24.817Z,2.70
2018-02-14T03:42:26.215Z,2.60
2018-02-14T03:43:27.621Z,3.00
2018-02-14T03:44:29.221Z,2.60
2018-02-14T03:45:31.793Z,2.80
2018-02-14T03:46:34.111Z,2.70
2018-02-14T03:47:35.673Z,2.60
2018-02-14T03:48:37.062Z,2.45
2018-02-14T03:49:38.449Z,2.28
2018-02-14T03:50:40.263Z,2.70
2018-02-14T03:51:41.657Z,2.30
2018-02-14T03:52:43.061Z,2.40
2018-02-14T03:53:44.469Z,2.17
2018-02-14T03:54:45.871Z,2.60
2018-02-14T03:55:47.625Z,2.47
2018-02-14T03:56:49.017Z,2.22
2018-02-14T03:57:50.449Z,2.55
2018-02-14T03:58:51.829Z,2.40
2018-02-14T03:59:53.266Z,2.10
2018-02-14T04:00:55.045Z,2.50
2018-02-14T04:01:57.187Z,2.30
2018-02-14T04:02:58.569Z,2.50
2018-02-14T04:03:59.971Z,2.30
2018-02-14T04:05:01.411Z,2.15
2018-02-14T04:06:03.945Z,2.47
2018-02-14T04:07:05.461Z,2.40
2018-02-14T04:08:07.167Z,2.20
2018-02-14T04:09:08.581Z,2.40
2018-02-14T04:10:09.977Z,2.70
2018-02-14T04:11:11.702Z,2.42
2018-02-14T04:12:13.110Z,2.45
2018-02-14T04:13:14.505Z,2.42
2018-02-14T04:14:16.082Z,2.53
2018-02-14T04:15:17.471Z,2.20
2018-02-14T04:16:19.895Z,2.22
2018-02-14T04:17:21.675Z,2.40
2018-02-14T04:18:23.396Z,2.35
2018-02-14T04:19:25.925Z,2.17
2018-02-14T04:20:27.353Z,2.28
2018-02-14T04:21:29.069Z,2.30
2018-02-14T04:22:31.201Z,2.40
2018-02-14T04:23:32.637Z,2.25
2018-02-14T04:24:34.082Z,2.53
2018-02-14T04:25:35.737Z,2.20
2018-02-14T04:26:37.241Z,2.40
2018-02-14T04:27:38.609Z,2.30
2018-02-14T04:28:40.314Z,2.35
2018-02-14T04:29:41.709Z,2.50
2018-02-14T04:30:43.126Z,2.28
2018-02-14T04:31:45.059Z,2.30
2018-02-14T04:32:46.481Z,2.30
2018-02-14T04:33:48.710Z,2.35
2018-02-14T04:34:51.017Z,2.40
2018-02-14T04:35:52.647Z,2.50
2018-02-14T04:36:55.054Z,2.67
2018-02-14T04:37:56.510Z,2.60
2018-02-14T04:38:58.073Z,2.60
2018-02-14T04:39:59.477Z,2.60
2018-02-14T04:41:01.037Z,2.97
2018-02-14T04:42:02.686Z,3.30
2018-02-14T04:43:05.825Z,2.83
2018-02-14T04:44:08.109Z,2.80
2018-02-14T04:45:09.487Z,3.28
2018-02-14T04:46:10.912Z,2.78
2018-02-14T04:47:12.594Z,3.10
2018-02-14T04:48:13.981Z,3.12
2018-02-14T04:49:15.369Z,2.85
2018-02-14T04:50:16.757Z,3.08
2018-02-14T04:51:18.142Z,3.28
2018-02-14T04:52:19.567Z,3.30
2018-02-14T04:53:20.942Z,3.33
2018-02-14T04:54:22.421Z,2.87
2018-02-14T04:55:23.993Z,3.90
2018-02-14T04:56:25.366Z,4.22
2018-02-14T04:57:27.181Z,5.60
2018-02-14T04:58:30.279Z,4.90
2018-02-14T04:59:31.675Z,3.65
2018-02-14T05:00:33.227Z,3.60
2018-02-14T05:01:36.085Z,3.83
2018-02-14T05:02:38.764Z,3.65
2018-02-14T05:03:40.205Z,3.58
2018-02-14T05:04:42.322Z,3.40
2018-02-14T05:05:43.888Z,3.53
2018-02-14T05:06:46.173Z,4.12
2018-02-14T05:07:48.578Z,3.42
2018-02-14T05:08:51.687Z,3.37
2018-02-14T05:09:53.082Z,3.33
2018-02-14T05:10:54.486Z,3.22
2018-02-14T05:11:57.576Z,3.15
2018-02-14T05:13:00.957Z,3.45
2018-02-14T05:14:03.489Z,3.00
2018-02-14T05:15:04.865Z,3.42
2018-02-14T05:16:07.007Z,3.30
2018-02-14T05:17:08.564Z,3.12
2018-02-14T05:18:10.983Z,3.53
2018-02-14T05:19:12.369Z,3.47
2018-02-14T05:20:14.544Z,3.78
2018-02-14T05:21:16.652Z,4.47
2018-02-14T05:22:18.022Z,4.68
2018-02-14T05:23:21.501Z,5.12
2018-02-14T05:24:23.621Z,5.87
2018-02-14T05:25:25.926Z,7.40
2018-02-14T05:26:27.334Z,6.37
2018-02-14T05:27:28.714Z,5.75
2018-02-14T05:28:31.006Z,6.12
2018-02-14T05:29:32.518Z,6.57
2018-02-14T05:30:35.624Z,7.30
2018-02-14T05:31:37.114Z,6.62
2018-02-14T05:32:39.317Z,7.30
2018-02-14T05:33:40.737Z,7.60
2018-02-14T05:34:42.248Z,6.43
2018-02-14T05:35:43.733Z,6.80
2018-02-14T05:36:45.129Z,8.30
2018-02-14T05:37:46.517Z,8.32
2018-02-14T05:38:48.068Z,7.50
2018-02-14T05:39:50.958Z,6.25
2018-02-14T05:40:52.343Z,5.70
2018-02-14T05:41:54.618Z,6.25
2018-02-14T05:42:56.016Z,5.57
2018-02-14T05:43:58.930Z,6.03
2018-02-14T05:45:00.338Z,5.70
2018-02-14T05:46:01.732Z,5.78
2018-02-14T05:47:03.114Z,7.40
2018-02-14T05:48:04.503Z,7.30
2018-02-14T05:49:05.909Z,6.97
2018-02-14T05:50:08.038Z,6.80
2018-02-14T05:51:09.464Z,7.12
2018-02-14T05:52:10.849Z,6.45
2018-02-14T05:53:13.007Z,7.43
2018-02-14T05:54:16.125Z,6.07
2018-02-14T05:55:17.494Z,6.43
2018-02-14T05:56:19.038Z,4.90
2018-02-14T05:57:21.186Z,5.65
2018-02-14T05:58:23.334Z,5.95
2018-02-14T05:59:25.099Z,5.40
2018-02-14T06:00:28.125Z,5.75
2018-02-14T06:01:29.505Z,6.32
2018-02-14T06:02:31.767Z,6.82
2018-02-14T06:03:33.270Z,5.68
2018-02-14T06:04:34.957Z,5.85
2018-02-14T06:05:36.477Z,5.57
2018-02-14T06:06:37.978Z,6.70
2018-02-14T06:07:39.377Z,6.75
2018-02-14T06:08:40.767Z,6.30
2018-02-14T06:09:42.281Z,6.68
2018-02-14T06:10:44.412Z,7.05
2018-02-14T06:11:45.802Z,5.53
2018-02-14T06:12:47.318Z,3.90
2018-02-14T06:13:49.474Z,3.40
2018-02-14T06:14:50.919Z,4.22
2018-02-14T06:15:52.488Z,4.28
2018-02-14T06:16:53.892Z,3.50
2018-02-14T06:17:55.288Z,4.50
2018-02-14T06:18:56.816Z,4.45
2018-02-14T06:19:58.686Z,4.03
2018-02-14T06:21:00.818Z,4.03
2018-02-14T06:22:02.384Z,4.35
2018-02-14T06:23:03.950Z,3.50
2018-02-14T06:24:05.361Z,3.85
2018-02-14T06:25:06.896Z,4.28
2018-02-14T06:26:09.526Z,4.10
2018-02-14T06:27:11.657Z,4.50
2018-02-14T06:28:13.046Z,4.87
2018-02-14T06:29:14.592Z,5.07
2018-02-14T06:30:16.007Z,4.80
2018-02-14T06:31:18.200Z,4.30
2018-02-14T06:32:19.730Z,4.00
2018-02-14T06:33:21.106Z,4.10
2018-02-14T06:34:22.514Z,4.07
2018-02-14T06:35:24.093Z,3.60
2018-02-14T06:36:25.478Z,3.45
2018-02-14T06:37:27.609Z,3.60
2018-02-14T06:38:29.144Z,4.40
2018-02-14T06:39:30.686Z,3.87
2018-02-14T06:40:32.094Z,4.00
2018-02-14T06:41:33.617Z,3.95
2018-02-14T06:42:35.883Z,4.15
2018-02-14T06:43:37.274Z,4.18
2018-02-14T06:44:38.810Z,4.28
2018-02-14T06:45:41.124Z,4.93
2018-02-14T06:46:42.536Z,4.87
2018-02-14T06:47:44.652Z,4.62
2018-02-14T06:48:46.168Z,4.37
2018-02-14T06:49:47.546Z,6.05
2018-02-14T06:50:48.944Z,13.15
2018-02-14T06:51:50.472Z,24.15
2018-02-14T06:52:51.890Z,45.88
2018-02-14T06:53:53.282Z,44.50
2018-02-14T06:54:54.782Z,32.53
2018-02-14T06:55:56.942Z,16.95
2018-02-14T06:56:59.126Z,8.52
2018-02-14T06:58:00.638Z,7.85
2018-02-14T06:59:02.798Z,6.95
2018-02-14T07:00:05.943Z,6.00
2018-02-14T07:01:07.718Z,5.70
2018-02-14T07:02:10.812Z,7.22
2018-02-14T07:03:13.064Z,10.73
2018-02-14T07:04:14.490Z,14.85
2018-02-14T07:05:15.874Z,25.80
2018-02-14T07:06:17.393Z,23.85
2018-02-14T07:07:18.798Z,19.15
2018-02-14T07:08:20.186Z,22.48
2018-02-14T07:09:21.680Z,14.77
2018-02-14T07:10:23.101Z,12.77
2018-02-14T07:11:24.518Z,9.10
2018-02-14T07:12:27.160Z,10.98
2018-02-14T07:13:28.676Z,13.15
2018-02-14T07:14:30.846Z,11.25
2018-02-14T07:15:33.082Z,12.15
2018-02-14T07:16:34.622Z,12.80
2018-02-14T07:17:36.010Z,8.35
2018-02-14T07:18:37.398Z,6.78
2018-02-14T07:19:38.906Z,7.30
2018-02-14T07:20:40.302Z,7.65
2018-02-14T07:21:42.053Z,7.47
2018-02-14T07:22:44.381Z,7.22
2018-02-14T07:23:45.766Z,7.60
2018-02-14T07:24:47.883Z,7.60
2018-02-14T07:25:49.435Z,7.15
2018-02-14T07:26:50.856Z,6.43
2018-02-14T07:27:52.254Z,6.85
2018-02-14T07:28:53.827Z,7.00
2018-02-14T07:29:55.358Z,6.72
2018-02-14T07:30:56.752Z,7.07
2018-02-14T07:31:58.599Z,7.18
2018-02-14T07:33:00.906Z,7.25
2018-02-14T07:34:02.298Z,7.28
2018-02-14T07:35:03.774Z,7.20
2018-02-14T07:36:05.217Z,7.45
2018-02-14T07:37:06.646Z,6.82
2018-02-14T07:38:08.046Z,6.78
2018-02-14T07:39:09.716Z,7.87
2018-02-14T07:40:11.126Z,7.57
2018-02-14T07:41:13.264Z,7.10
2018-02-14T07:42:14.904Z,7.30
2018-02-14T07:43:16.298Z,8.65
2018-02-14T07:44:17.878Z,9.32
2018-02-14T07:45:19.284Z,9.95
2018-02-14T07:46:21.996Z,9.10
2018-02-14T07:47:23.429Z,7.45
2018-02-14T07:48:25.932Z,7.45
2018-02-14T07:49:27.322Z,7.90
2018-02-14T07:50:29.477Z,7.65
2018-02-14T07:51:31.613Z,7.80
2018-02-14T07:52:33.266Z,8.05
2018-02-14T07:53:36.062Z,7.35
2018-02-14T07:54:37.490Z,7.80
2018-02-14T07:55:40.772Z,9.82
2018-02-14T07:56:42.932Z,8.85
2018-02-14T07:57:46.237Z,9.48
2018-02-14T07:58:47.632Z,11.10
2018-02-14T07:59:49.034Z,12.13
2018-02-14T08:00:50.438Z,12.43
2018-02-14T08:01:52.580Z,13.55
2018-02-14T08:02:53.989Z,12.23
2018-02-14T08:03:55.390Z,10.10
2018-02-14T08:04:56.788Z,8.73
2018-02-14T08:05:58.958Z,8.32
2018-02-14T08:07:00.554Z,12.63
2018-02-14T08:08:02.104Z,13.90
2018-02-14T08:09:03.588Z,12.48
2018-02-14T08:10:05.724Z,11.93
2018-02-14T08:11:07.306Z,11.00
2018-02-14T08:12:08.710Z,8.85
2018-02-14T08:13:10.390Z,8.25
2018-02-14T08:14:12.714Z,8.10
2018-02-14T08:15:14.128Z,6.78
2018-02-14T08:16:15.506Z,7.37
2018-02-14T08:17:17.038Z,8.95
2018-02-14T08:18:18.444Z,9.63
2018-02-14T08:19:20.950Z,8.40
2018-02-14T08:20:22.483Z,6.78
2018-02-14T08:21:23.996Z,5.80
2018-02-14T08:22:25.380Z,6.18
2018-02-14T08:23:26.902Z,5.85
2018-02-14T08:24:29.191Z,5.72
2018-02-14T08:25:31.338Z,6.35
2018-02-14T08:26:32.875Z,5.70
2018-02-14T08:27:34.392Z,5.95
2018-02-14T08:28:35.798Z,5.95
2018-02-14T08:29:37.182Z,5.90
2018-02-14T08:30:38.746Z,5.37
2018-02-14T08:31:40.140Z,5.80
2018-02-14T08:32:42.276Z,6.05
2018-02-14T08:33:43.814Z,5.97
2018-02-14T08:34:45.198Z,5.50
2018-02-14T08:35:46.582Z,6.15
2018-02-14T08:36:48.758Z,6.07
2018-02-14T08:37:50.152Z,7.20
2018-02-14T08:38:51.544Z,9.13
2018-02-14T08:39:53.084Z,9.00
2018-02-14T08:40:54.654Z,10.93
2018-02-14T08:41:56.044Z,16.90
2018-02-14T08:42:58.356Z,14.75
2018-02-14T08:43:59.942Z,13.18
2018-02-14T08:45:01.342Z,10.73
2018-02-14T08:46:02.906Z,11.45
2018-02-14T08:47:05.978Z,11.63
2018-02-14T08:48:07.380Z,10.93
2018-02-14T08:49:09.042Z,10.85
2018-02-14T08:50:10.642Z,10.70
2018-02-14T08:51:12.034Z,10.32
2018-02-14T08:52:13.429Z,12.02
2018-02-14T08:53:16.098Z,12.85
2018-02-14T08:54:17.502Z,14.13
2018-02-14T08:55:18.904Z,15.05
2018-02-14T08:56:20.400Z,13.15
2018-02-14T08:57:22.536Z,10.73
2018-02-14T08:58:24.681Z,11.27
2018-02-14T08:59:26.230Z,14.10
2018-02-14T09:00:27.708Z,13.02
2018-02-14T09:01:30.820Z,9.20
2018-02-14T09:02:32.242Z,11.70
2018-02-14T09:03:33.646Z,11.05
2018-02-14T09:04:36.756Z,13.00
2018-02-14T09:05:38.163Z,10.93
2018-02-14T09:06:40.682Z,8.35
2018-02-14T09:07:42.290Z,8.13
2018-02-14T09:08:43.710Z,7.85
2018-02-14T09:09:45.152Z,9.43
2018-02-14T09:10:48.318Z,8.98
2018-02-14T09:11:49.938Z,7.85
2018-02-14T09:12:51.344Z,7.10
2018-02-14T09:13:52.938Z,5.78
2018-02-14T09:14:54.882Z,5.07
2018-02-14T09:15:56.298Z,5.30
2018-02-14T09:16:57.922Z,5.53
2018-02-14T09:17:59.526Z,5.85
2018-02-14T09:19:00.928Z,5.47
2018-02-14T09:20:02.748Z,5.90
2018-02-14T09:21:05.741Z,5.82
2018-02-14T09:22:07.179Z,5.97
2018-02-14T09:23:08.560Z,5.30
2018-02-14T09:24:10.866Z,5.28
2018-02-14T09:25:13.291Z,5.72
2018-02-14T09:26:14.704Z,6.03
2018-02-14T09:27:16.130Z,5.20
2018-02-14T09:28:17.511Z,4.55
2018-02-14T09:29:18.934Z,4.07
2018-02-14T09:30:20.749Z,4.10
2018-02-14T09:31:22.218Z,4.22
2018-02-14T09:32:23.588Z,5.72
2018-02-14T09:33:25.134Z,4.75
2018-02-14T09:34:28.022Z,6.25
2018-02-14T09:35:30.706Z,7.45
2018-02-14T09:36:32.128Z,11.52
2018-02-14T09:37:34.296Z,12.07
2018-02-14T09:38:36.572Z,15.27
2018-02-14T09:39:37.984Z,15.60
2018-02-14T09:40:39.377Z,10.60
2018-02-14T09:41:41.022Z,11.20
2018-02-14T09:42:42.530Z,13.38
2018-02-14T09:43:43.934Z,10.20
2018-02-14T09:44:45.392Z,8.95
2018-02-14T09:45:47.110Z,10.20
2018-02-14T09:46:48.561Z,7.90
2018-02-14T09:47:49.957Z,5.80
2018-02-14T09:48:52.174Z,4.95
2018-02-14T09:49:54.312Z,5.40
2018-02-14T09:50:55.974Z,8.05
2018-02-14T09:51:57.463Z,6.70
2018-02-14T09:52:58.879Z,6.37
2018-02-14T09:54:00.286Z,6.68
2018-02-14T09:55:01.832Z,6.20
2018-02-14T09:56:04.286Z,5.18
2018-02-14T09:57:05.690Z,4.75
2018-02-14T09:58:07.264Z,4.53
2018-02-14T09:59:09.440Z,4.78
2018-02-14T10:00:10.842Z,4.20
2018-02-14T10:01:12.554Z,4.70
2018-02-14T10:02:14.222Z,4.00
2018-02-14T10:03:16.902Z,4.32
2018-02-14T10:04:19.230Z,4.40
2018-02-14T10:05:20.820Z,4.30
2018-02-14T10:06:22.262Z,4.45
2018-02-14T10:07:23.865Z,4.90
2018-02-14T10:08:25.428Z,4.47
2018-02-14T10:09:26.821Z,4.50
2018-02-14T10:10:28.960Z,4.57
2018-02-14T10:11:30.918Z,4.37
2018-02-14T10:12:33.054Z,4.50
2018-02-14T10:13:34.454Z,4.40
2018-02-14T10:14:35.990Z,4.50
2018-02-14T10:15:37.402Z,4.07
2018-02-14T10:16:38.822Z,4.37
2018-02-14T10:17:40.318Z,3.97
2018-02-14T10:18:41.717Z,4.60
2018-02-14T10:19:43.098Z,4.22
2018-02-14T10:20:44.674Z,4.20
2018-02-14T10:21:46.666Z,4.07
2018-02-14T10:22:48.810Z,4.05
2018-02-14T10:23:50.340Z,4.10
2018-02-14T10:24:51.977Z,3.75
2018-02-14T10:25:53.394Z,4.57
2018-02-14T10:26:56.059Z,4.07
2018-02-14T10:27:57.605Z,4.18
2018-02-14T10:28:59.010Z,3.93
2018-02-14T10:30:01.154Z,4.60
2018-02-14T10:31:02.738Z,4.22
2018-02-14T10:32:04.170Z,3.83
2018-02-14T10:33:05.562Z,4.15
2018-02-14T10:34:07.126Z,4.40
2018-02-14T10:35:08.546Z,4.53
2018-02-14T10:36:09.958Z,4.20
2018-02-14T10:37:12.274Z,4.53
2018-02-14T10:38:14.462Z,4.43
2018-02-14T10:39:15.850Z,4.80
2018-02-14T10:40:17.361Z,3.83
2018-02-14T10:41:18.922Z,3.87
2018-02-14T10:42:22.042Z,4.07
2018-02-14T10:43:24.166Z,5.12
2018-02-14T10:44:26.333Z,4.35
2018-02-14T10:45:27.892Z,4.40
2018-02-14T10:46:30.772Z,4.47
2018-02-14T10:47:33.280Z,4.62
2018-02-14T10:48:35.496Z,4.87
2018-02-14T10:49:36.906Z,4.95
2018-02-14T10:50:38.286Z,5.00
2018-02-14T10:51:41.390Z,5.00
2018-02-14T10:52:42.818Z,5.00
2018-02-14T10:53:44.230Z,4.82
2018-02-14T10:54:46.362Z,5.00
2018-02-14T10:55:47.799Z,4.60
2018-02-14T10:56:49.190Z,4.32
2018-02-14T10:57:50.806Z,4.15
2018-02-14T10:58:52.374Z,4.40
2018-02-14T10:59:53.771Z,4.10
2018-02-14T11:01:00.988Z,4.50
2018-02-14T11:02:08.636Z,3.67
2018-02-14T11:03:16.123Z,4.05
2018-02-14T11:04:22.114Z,4.55
2018-02-14T11:05:29.658Z,4.43
2018-02-14T11:06:34.938Z,4.78
2018-02-14T11:07:36.396Z,4.10
2018-02-14T11:08:37.982Z,4.82
2018-02-14T11:09:40.498Z,4.57
2018-02-14T11:10:41.883Z,4.22
2018-02-14T11:11:44.014Z,4.47
2018-02-14T11:12:45.420Z,4.20
2018-02-14T11:13:47.087Z,4.17
2018-02-14T11:14:48.498Z,4.27
2018-02-14T11:15:49.896Z,4.70
2018-02-14T11:16:52.030Z,3.95
2018-02-14T11:17:53.432Z,4.63
2018-02-14T11:18:55.861Z,4.17
2018-02-14T11:19:57.992Z,4.60
2018-02-14T11:20:59.390Z,4.57
2018-02-14T11:22:00.784Z,4.10
2018-02-14T11:23:02.182Z,4.60
2018-02-14T11:24:03.882Z,4.27
2018-02-14T11:25:06.000Z,4.20
2018-02-14T11:26:07.478Z,4.83
2018-02-14T11:27:10.591Z,4.50
2018-02-14T11:28:11.976Z,4.77
2018-02-14T11:29:13.889Z,4.37
2018-02-14T11:30:15.376Z,4.55
2018-02-14T11:31:16.786Z,4.60
2018-02-14T11:32:18.186Z,4.30
2018-02-14T11:33:19.797Z,4.40
2018-02-14T11:34:22.942Z,4.32
2018-02-14T11:35:24.597Z,4.13
2018-02-14T11:36:26.186Z,4.45
2018-02-14T11:37:27.599Z,4.47
2018-02-14T11:38:30.927Z,4.60
2018-02-14T11:39:32.796Z,4.40
2018-02-14T11:40:34.183Z,4.62
2018-02-14T11:41:35.569Z,4.53
2018-02-14T11:42:37.128Z,3.95
2018-02-14T11:43:38.525Z,4.07
2018-02-14T11:44:40.986Z,4.27
2018-02-14T11:45:43.510Z,4.15
2018-02-14T11:46:44.905Z,3.67
2018-02-14T11:47:46.300Z,4.10
2018-02-14T11:48:47.855Z,4.50
2018-02-14T11:49:50.394Z,3.85
2018-02-14T11:50:51.998Z,4.03
2018-02-14T11:51:53.538Z,4.10
2018-02-14T11:52:54.944Z,3.80
2018-02-14T11:53:56.674Z,4.12
2018-02-14T11:54:58.624Z,4.57
2018-02-14T11:56:00.021Z,4.10
2018-02-14T11:57:01.409Z,3.87
2018-02-14T11:58:02.966Z,4.50
2018-02-14T11:59:06.108Z,3.93
2018-02-14T12:00:07.914Z,4.32
2018-02-14T12:01:10.568Z,3.87
2018-02-14T12:02:13.824Z,4.30
2018-02-14T12:03:15.272Z,3.80
2018-02-14T12:04:16.665Z,4.53
2018-02-14T12:05:18.086Z,4.43
2018-02-14T12:06:20.780Z,4.68
2018-02-14T12:07:22.197Z,3.87
2018-02-14T12:08:25.308Z,3.90
2018-02-14T12:09:26.860Z,4.53
2018-02-14T12:10:28.269Z,4.62
2018-02-14T12:11:30.402Z,4.80
2018-02-14T12:12:32.737Z,4.90
2018-02-14T12:13:34.158Z,5.07
2018-02-14T12:14:35.546Z,4.40
2018-02-14T12:15:37.725Z,5.15
2018-02-14T12:16:39.119Z,4.83
2018-02-14T12:17:40.508Z,5.33
2018-02-14T12:18:42.842Z,4.90
2018-02-14T12:19:45.350Z,4.43
2018-02-14T12:20:46.766Z,4.40
2018-02-14T12:21:48.286Z,4.25
2018-02-14T12:22:50.478Z,4.62
2018-02-14T12:23:51.889Z,4.47
2018-02-14T12:24:53.406Z,4.80
2018-02-14T12:25:55.654Z,4.47
2018-02-14T12:26:57.069Z,4.75
2018-02-14T12:27:58.496Z,4.53
2018-02-14T12:29:00.674Z,5.07
2018-02-14T12:30:02.102Z,5.23
2018-02-14T12:31:03.520Z,4.90
2018-02-14T12:32:05.706Z,4.50
2018-02-14T12:33:07.106Z,4.40
2018-02-14T12:34:10.243Z,4.40
2018-02-14T12:35:11.645Z,4.60
2018-02-14T12:36:13.078Z,5.10
2018-02-14T12:37:14.472Z,5.18
2018-02-14T12:38:15.853Z,5.50
2018-02-14T12:39:17.996Z,5.07
2018-02-14T12:40:21.084Z,5.10
2018-02-14T12:41:23.242Z,5.18
2018-02-14T12:42:25.372Z,6.05
2018-02-14T12:43:26.967Z,5.37
2018-02-14T12:44:29.106Z,5.30
2018-02-14T12:45:30.490Z,6.05
2018-02-14T12:46:32.646Z,4.82
2018-02-14T12:47:34.065Z,5.67
2018-02-14T12:48:35.458Z,5.35
2018-02-14T12:49:37.062Z,6.00
2018-02-14T12:50:38.646Z,5.53
2018-02-14T12:51:40.832Z,6.00
2018-02-14T12:52:42.370Z,5.45
2018-02-14T12:53:44.574Z,5.95
2018-02-14T12:54:45.972Z,4.95
2018-02-14T12:55:47.568Z,6.18
2018-02-14T12:56:49.218Z,5.87
2018-02-14T12:57:50.605Z,5.50
2018-02-14T12:58:52.000Z,5.10
2018-02-14T12:59:53.554Z,5.77
2018-02-14T13:00:55.712Z,6.30
2018-02-14T13:01:57.120Z,6.10
2018-02-14T13:02:59.452Z,6.12
2018-02-14T13:04:00.866Z,6.40
2018-02-14T13:05:03.390Z,6.53
2018-02-14T13:06:05.548Z,6.93
2018-02-14T13:07:07.238Z,5.97
2018-02-14T13:08:10.444Z,5.72
2018-02-14T13:09:11.838Z,6.43
2018-02-14T13:10:13.224Z,6.20
2018-02-14T13:11:15.922Z,5.57
2018-02-14T13:12:17.346Z,6.00
2018-02-14T13:13:18.744Z,6.00
2018-02-14T13:14:21.088Z,5.72
2018-02-14T13:15:22.492Z,6.90
2018-02-14T13:16:23.874Z,6.47
2018-02-14T13:17:26.936Z,6.70
2018-02-14T13:18:28.326Z,6.30
2018-02-14T13:19:29.718Z,6.30
2018-02-14T13:20:31.284Z,6.37
2018-02-14T13:21:32.892Z,5.97
2018-02-14T13:22:34.704Z,6.10
2018-02-14T13:23:36.284Z,6.22
2018-02-14T13:24:37.856Z,5.97
2018-02-14T13:25:39.288Z,5.95
2018-02-14T13:26:40.858Z,6.45
2018-02-14T13:27:42.627Z,6.22
2018-02-14T13:28:44.062Z,6.45
2018-02-14T13:29:45.466Z,6.95
2018-02-14T13:30:47.018Z,6.17
2018-02-14T13:31:48.449Z,6.60
2018-02-14T13:32:49.848Z,6.03
2018-02-14T13:33:51.428Z,6.10
2018-02-14T13:34:52.826Z,5.33
2018-02-14T13:35:54.226Z,6.00
2018-02-14T13:36:56.501Z,9.03
2018-02-14T13:37:57.926Z,7.25
2018-02-14T13:39:01.050Z,7.62
2018-02-14T13:40:02.669Z,7.60
2018-02-14T13:41:04.278Z,6.10